Lauderdale by the Sea, Florida
Current Conditions -  °F | °C
As of 7:53 AM on Tuesday 21 Oct 2014 (Local Time) from KPMP Reporting Station
Light Rain Light Rain  
Wind Chill: 75°   Ceiling: 7000
Heat Index: 75°   Visibility: 6mi
Dew Point: 71°   Wind: 7mph
Humidity: 87%   Direction: 180°S
Pressure: 29.94"   Gusts: NA
Location:  26.2377°N, 80.0981°W
Report Text: KPMP 211153Z 18006KT 6SM -RA BR FEW039 SCT050 BKN070 24/22 A2994 RMK AO2 LTG DSNT N SLP140 P0001 60001 70001 T02390217 10278 20239 51012
Loading
Personal Weather Stations






























Interactive Weather Map
Tropical Storm Tracking
New forecast layout! Learn more

10-Day Weather Forecast

Advertisements
Track Severe Weather on mobile